createdAt,value
2018-11-06T00:00:04.119Z,972
2018-11-06T00:01:05.598Z,972
2018-11-06T00:02:16.407Z,971.8
2018-11-06T00:03:20.415Z,972
2018-11-06T00:04:21.601Z,972
2018-11-06T00:05:22.858Z,972
2018-11-06T00:06:26.953Z,972
2018-11-06T00:07:30.527Z,972
2018-11-06T00:08:31.902Z,972
2018-11-06T00:09:35.778Z,972
2018-11-06T00:10:37.200Z,972
2018-11-06T00:11:38.443Z,972
2018-11-06T00:12:39.654Z,972
2018-11-06T00:13:40.871Z,972
2018-11-06T00:14:42.347Z,972
2018-11-06T00:15:43.585Z,972
2018-11-06T00:16:44.900Z,972.1
2018-11-06T00:17:46.131Z,972
2018-11-06T00:18:47.336Z,972.1
2018-11-06T00:19:48.493Z,972
2018-11-06T00:20:52.185Z,972
2018-11-06T00:21:57.752Z,972
2018-11-06T00:22:58.926Z,972
2018-11-06T00:24:00.299Z,972
2018-11-06T00:25:01.733Z,972
2018-11-06T00:26:02.995Z,972
2018-11-06T00:27:05.240Z,971.9
2018-11-06T00:28:07.371Z,972
2018-11-06T00:29:10.780Z,971.8
2018-11-06T00:30:11.946Z,972
2018-11-06T00:31:13.159Z,972
2018-11-06T00:32:15.880Z,971.9
2018-11-06T00:33:17.094Z,972
2018-11-06T00:34:20.334Z,972
2018-11-06T00:35:24.445Z,971.9
2018-11-06T00:36:25.633Z,972
2018-11-06T00:37:26.890Z,971.9
2018-11-06T00:38:28.148Z,971.9
2018-11-06T00:39:29.350Z,972
2018-11-06T00:40:36.178Z,972
2018-11-06T00:41:38.629Z,971.9
2018-11-06T00:42:43.765Z,972
2018-11-06T00:43:45.312Z,971.9
2018-11-06T00:44:46.536Z,972
2018-11-06T00:45:49.203Z,971.9
2018-11-06T00:46:50.371Z,972
2018-11-06T00:47:51.649Z,972
2018-11-06T00:48:52.822Z,972
2018-11-06T00:49:54.031Z,971.8
2018-11-06T00:50:55.748Z,972
2018-11-06T00:51:56.971Z,972
2018-11-06T00:52:58.158Z,972.1
2018-11-06T00:53:59.365Z,972.1
2018-11-06T00:55:00.616Z,972.2
2018-11-06T00:56:01.797Z,972.1
2018-11-06T00:57:03.051Z,972
2018-11-06T00:58:04.319Z,972.1
2018-11-06T00:59:05.504Z,972.1
2018-11-06T01:00:06.663Z,972.1
2018-11-06T01:01:07.897Z,972
2018-11-06T01:02:09.112Z,972.1
2018-11-06T01:03:12.470Z,972.1
2018-11-06T01:04:13.658Z,972.1
2018-11-06T01:05:14.810Z,972.1
2018-11-06T01:06:19.151Z,972.1
2018-11-06T01:07:20.393Z,972.1
2018-11-06T01:08:21.618Z,972.1
2018-11-06T01:09:22.848Z,972.1
2018-11-06T01:10:25.288Z,972.1
2018-11-06T01:11:26.542Z,972.1
2018-11-06T01:12:27.723Z,972
2018-11-06T01:13:29.013Z,972
2018-11-06T01:14:30.190Z,972.1
2018-11-06T01:15:31.364Z,972.1
2018-11-06T01:16:32.593Z,972
2018-11-06T01:17:33.774Z,972
2018-11-06T01:18:34.976Z,972
2018-11-06T01:19:36.147Z,972
2018-11-06T01:20:37.335Z,972
2018-11-06T01:21:38.547Z,972
2018-11-06T01:22:44.183Z,972
2018-11-06T01:23:45.425Z,972
2018-11-06T01:24:46.845Z,972
2018-11-06T01:25:47.993Z,972.1
2018-11-06T01:26:49.185Z,971.9
2018-11-06T01:27:50.401Z,972.1
2018-11-06T01:28:51.628Z,972.1
2018-11-06T01:29:52.857Z,972
2018-11-06T01:30:54.058Z,972.1
2018-11-06T01:31:57.998Z,972.2
2018-11-06T01:32:59.205Z,972.2
2018-11-06T01:34:00.648Z,972.3
2018-11-06T01:35:01.827Z,972.2
2018-11-06T01:36:06.082Z,972.2
2018-11-06T01:37:07.362Z,972.1
2018-11-06T01:38:08.531Z,972.2
2018-11-06T01:39:09.766Z,972.2
2018-11-06T01:40:10.921Z,971.9
2018-11-06T01:41:12.089Z,972.2
2018-11-06T01:42:14.913Z,972.2
2018-11-06T01:43:16.068Z,972.2
2018-11-06T01:44:17.260Z,972.2
2018-11-06T01:45:18.573Z,972.2
2018-11-06T01:46:22.695Z,972.2
2018-11-06T01:47:23.842Z,972.2
2018-11-06T01:48:25.052Z,972.2
2018-11-06T01:49:26.265Z,972.2
2018-11-06T01:50:27.510Z,972.2
2018-11-06T01:51:29.683Z,972.2
2018-11-06T01:52:30.844Z,972.2
2018-11-06T01:53:32.118Z,972.2
2018-11-06T01:54:33.342Z,972.2
2018-11-06T01:55:34.503Z,972.2
2018-11-06T01:56:35.641Z,972.2
2018-11-06T01:57:36.876Z,972.2
2018-11-06T01:58:38.120Z,972.2
2018-11-06T01:59:39.584Z,972.2
2018-11-06T02:00:40.852Z,972.2
2018-11-06T02:01:41.986Z,972.2
2018-11-06T02:02:43.161Z,972.2
2018-11-06T02:03:44.400Z,972.1
2018-11-06T02:04:45.680Z,972.1
2018-11-06T02:05:48.222Z,972.1
2018-11-06T02:06:49.379Z,972.1
2018-11-06T02:07:50.589Z,972.1
2018-11-06T02:08:51.801Z,972.1
2018-11-06T02:09:53.070Z,972.1
2018-11-06T02:10:54.264Z,972.2
2018-11-06T02:11:55.440Z,972.1
2018-11-06T02:12:56.624Z,971.9
2018-11-06T02:13:58.014Z,972.1
2018-11-06T02:14:59.287Z,972.1
2018-11-06T02:16:00.473Z,972
2018-11-06T02:17:01.712Z,972
2018-11-06T02:18:02.914Z,972
2018-11-06T02:19:04.150Z,972
2018-11-06T02:20:05.361Z,972
2018-11-06T02:21:06.543Z,971.8
2018-11-06T02:22:07.715Z,972
2018-11-06T02:23:08.947Z,972.1
2018-11-06T02:24:10.217Z,972.1
2018-11-06T02:25:11.450Z,972
2018-11-06T02:26:12.909Z,972
2018-11-06T02:27:14.096Z,971.9
2018-11-06T02:28:15.537Z,972
2018-11-06T02:29:16.922Z,972
2018-11-06T02:30:20.266Z,971.9
2018-11-06T02:31:22.292Z,971.9
2018-11-06T02:32:24.381Z,971.9
2018-11-06T02:33:25.520Z,971.9
2018-11-06T02:34:34.100Z,971.9
2018-11-06T02:35:35.553Z,971.9
2018-11-06T02:36:38.308Z,971.8
2018-11-06T02:37:39.503Z,971.8
2018-11-06T02:38:40.716Z,971.9
2018-11-06T02:39:42.428Z,971.8
2018-11-06T02:40:43.649Z,971.8
2018-11-06T02:41:46.077Z,971.8
2018-11-06T02:42:47.288Z,971.8
2018-11-06T02:43:48.493Z,971.8
2018-11-06T02:44:49.690Z,971.9
2018-11-06T02:45:51.091Z,971.8
2018-11-06T02:46:52.326Z,971.8
2018-11-06T02:47:53.557Z,971.9
2018-11-06T02:48:54.769Z,971.9
2018-11-06T02:49:57.481Z,971.9
2018-11-06T02:51:00.685Z,971.6
2018-11-06T02:52:01.902Z,971.8
2018-11-06T02:53:03.302Z,971.9
2018-11-06T02:54:04.488Z,971.9
2018-11-06T02:55:05.643Z,971.9
2018-11-06T02:56:07.182Z,971.9
2018-11-06T02:57:08.374Z,971.9
2018-11-06T02:58:10.639Z,972
2018-11-06T02:59:11.937Z,972
2018-11-06T03:00:13.140Z,972
2018-11-06T03:01:14.606Z,972
2018-11-06T03:02:15.810Z,972
2018-11-06T03:03:16.984Z,972
2018-11-06T03:04:18.191Z,972
2018-11-06T03:05:19.566Z,972
2018-11-06T03:06:20.769Z,972
2018-11-06T03:07:21.959Z,972
2018-11-06T03:08:23.172Z,971.9
2018-11-06T03:09:24.396Z,972
2018-11-06T03:10:25.679Z,972
2018-11-06T03:11:26.800Z,971.9
2018-11-06T03:12:28.012Z,972.1
2018-11-06T03:13:32.024Z,972.1
2018-11-06T03:14:33.326Z,972.1
2018-11-06T03:15:34.536Z,972.1
2018-11-06T03:16:35.754Z,972
2018-11-06T03:17:36.893Z,972.1
2018-11-06T03:18:38.065Z,972
2018-11-06T03:19:39.286Z,972
2018-11-06T03:20:40.496Z,972
2018-11-06T03:21:41.752Z,972
2018-11-06T03:22:43.989Z,972
2018-11-06T03:23:45.240Z,972
2018-11-06T03:24:46.397Z,972
2018-11-06T03:25:47.667Z,972
2018-11-06T03:26:48.952Z,972
2018-11-06T03:27:50.081Z,972
2018-11-06T03:28:54.025Z,972.1
2018-11-06T03:29:56.905Z,972.1
2018-11-06T03:30:58.143Z,972.1
2018-11-06T03:31:59.331Z,972.1
2018-11-06T03:33:00.506Z,972.1
2018-11-06T03:34:01.700Z,972.1
2018-11-06T03:35:05.325Z,972.1
2018-11-06T03:36:07.481Z,972.2
2018-11-06T03:37:10.798Z,972.2
2018-11-06T03:38:12.246Z,972.2
2018-11-06T03:39:13.641Z,972.2
2018-11-06T03:40:14.834Z,972
2018-11-06T03:41:16.034Z,972.3
2018-11-06T03:42:19.737Z,972.1
2018-11-06T03:43:20.920Z,972.3
2018-11-06T03:44:22.133Z,972.3
2018-11-06T03:45:23.362Z,972.1
2018-11-06T03:46:24.541Z,972.4
2018-11-06T03:47:28.221Z,972.3
2018-11-06T03:48:29.366Z,972.3
2018-11-06T03:49:30.538Z,972.4
2018-11-06T03:50:31.746Z,972.4
2018-11-06T03:51:32.932Z,972.4
2018-11-06T03:52:34.314Z,972.4
2018-11-06T03:53:35.495Z,972.2
2018-11-06T03:54:39.466Z,972.4
2018-11-06T03:55:40.662Z,972.4
2018-11-06T03:56:41.897Z,972.4
2018-11-06T03:57:43.122Z,972.4
2018-11-06T03:58:44.314Z,972.4
2018-11-06T03:59:45.493Z,972.4
2018-11-06T04:00:49.664Z,972.4
2018-11-06T04:01:53.681Z,972.5
2018-11-06T04:02:54.928Z,972.5
2018-11-06T04:03:56.100Z,972.5
2018-11-06T04:04:57.543Z,972.5
2018-11-06T04:05:58.729Z,972.5
2018-11-06T04:06:59.907Z,972.5
2018-11-06T04:08:01.116Z,972.5
2018-11-06T04:09:02.513Z,972.4
2018-11-06T04:10:03.801Z,972.5
2018-11-06T04:11:04.969Z,972.3
2018-11-06T04:12:06.181Z,972.5
2018-11-06T04:13:07.597Z,972.5
2018-11-06T04:14:18.601Z,972.5
2018-11-06T04:15:19.889Z,972.5
2018-11-06T04:16:21.061Z,972.4
2018-11-06T04:17:22.222Z,972.5
2018-11-06T04:18:23.421Z,972.5
2018-11-06T04:19:24.637Z,972.5
2018-11-06T04:20:25.842Z,972.5
2018-11-06T04:21:27.300Z,972.6
2018-11-06T04:22:28.460Z,972.5
2018-11-06T04:23:29.712Z,972.6
2018-11-06T04:24:30.962Z,972.6
2018-11-06T04:25:32.199Z,972.5
2018-11-06T04:26:33.414Z,972.5
2018-11-06T04:27:34.641Z,972.5
2018-11-06T04:28:35.842Z,972.6
2018-11-06T04:29:37.018Z,972.6
2018-11-06T04:30:38.174Z,972.6
2018-11-06T04:31:39.335Z,972.7
2018-11-06T04:32:40.512Z,972.7
2018-11-06T04:33:41.712Z,972.7
2018-11-06T04:34:42.900Z,972.7
2018-11-06T04:35:44.082Z,972.7
2018-11-06T04:36:45.236Z,972.7
2018-11-06T04:37:46.726Z,972.7
2018-11-06T04:38:48.215Z,972.6
2018-11-06T04:39:49.402Z,972.7
2018-11-06T04:40:55.494Z,972.8
2018-11-06T04:41:56.696Z,972.7
2018-11-06T04:43:00.034Z,972.7
2018-11-06T04:44:03.434Z,972.6
2018-11-06T04:45:05.674Z,972.7
2018-11-06T04:46:11.237Z,972.7
2018-11-06T04:47:12.498Z,972.7
2018-11-06T04:48:13.733Z,972.7
2018-11-06T04:49:15.163Z,972.7
2018-11-06T04:50:16.329Z,972.7
2018-11-06T04:51:17.524Z,972.6
2018-11-06T04:52:19.717Z,972.6
2018-11-06T04:53:24.601Z,972.6
2018-11-06T04:54:25.869Z,972.6
2018-11-06T04:55:28.807Z,972.6
2018-11-06T04:56:30.001Z,972.5
2018-11-06T04:57:31.169Z,972.6
2018-11-06T04:58:32.328Z,972.5
2018-11-06T04:59:33.584Z,972.5
2018-11-06T05:00:34.767Z,972.5
2018-11-06T05:01:35.959Z,972.5
2018-11-06T05:02:39.559Z,972.5
2018-11-06T05:03:43.157Z,972.6
2018-11-06T05:04:44.407Z,972.5
2018-11-06T05:05:45.586Z,972.5
2018-11-06T05:06:46.791Z,972.6
2018-11-06T05:07:47.958Z,972.5
2018-11-06T05:08:51.608Z,972.5
2018-11-06T05:09:52.868Z,972.5
2018-11-06T05:10:54.039Z,972.5
2018-11-06T05:11:56.470Z,972.5
2018-11-06T05:12:57.885Z,972.6
2018-11-06T05:13:59.101Z,972.5
2018-11-06T05:15:00.292Z,972.6
2018-11-06T05:16:01.507Z,972.5
2018-11-06T05:17:02.918Z,972.6
2018-11-06T05:18:04.137Z,972.6
2018-11-06T05:19:05.305Z,972.6
2018-11-06T05:20:06.482Z,972.5
2018-11-06T05:21:07.674Z,972.6
2018-11-06T05:22:09.347Z,972.4
2018-11-06T05:23:10.557Z,972.5
2018-11-06T05:24:17.547Z,972.2
2018-11-06T05:25:20.035Z,972.5
2018-11-06T05:26:21.277Z,972.5
2018-11-06T05:27:22.527Z,972.4
2018-11-06T05:28:23.926Z,972.5
2018-11-06T05:29:25.137Z,972.5
2018-11-06T05:30:26.389Z,972.5
2018-11-06T05:31:27.586Z,972.5
2018-11-06T05:32:28.774Z,972.5
2018-11-06T05:33:29.992Z,972.6
2018-11-06T05:34:31.173Z,972.6
2018-11-06T05:35:32.389Z,972.5
2018-11-06T05:36:33.627Z,972.6
2018-11-06T05:37:39.842Z,972.6
2018-11-06T05:38:45.438Z,972.6
2018-11-06T05:39:46.586Z,972.6
2018-11-06T05:40:53.576Z,972.7
2018-11-06T05:41:57.479Z,972.5
2018-11-06T05:42:58.660Z,972.7
2018-11-06T05:44:00.217Z,972.7
2018-11-06T05:45:01.586Z,972.7
2018-11-06T05:46:02.812Z,972.8
2018-11-06T05:47:04.286Z,972.8
2018-11-06T05:48:05.710Z,972.8
2018-11-06T05:49:06.884Z,972.8
2018-11-06T05:50:13.095Z,972.8
2018-11-06T05:51:14.404Z,972.8
2018-11-06T05:52:16.923Z,972.8
2018-11-06T05:53:20.489Z,972.8
2018-11-06T05:54:21.672Z,972.9
2018-11-06T05:55:22.871Z,972.7
2018-11-06T05:56:26.539Z,972.8
2018-11-06T05:57:31.579Z,972.9
2018-11-06T05:58:32.817Z,972.8
2018-11-06T05:59:34.080Z,972.9
2018-11-06T06:00:37.751Z,972.9
2018-11-06T06:01:38.913Z,972.8
2018-11-06T06:02:40.073Z,972.8
2018-11-06T06:03:43.861Z,972.9
2018-11-06T06:06:08.719Z,972.6
2018-11-06T06:07:11.201Z,972.9
2018-11-06T06:08:12.429Z,972.9
2018-11-06T06:09:13.858Z,973
2018-11-06T06:10:15.204Z,973
2018-11-06T06:11:16.492Z,973
2018-11-06T06:12:17.627Z,972.8
2018-11-06T06:13:18.803Z,973
2018-11-06T06:14:21.702Z,973
2018-11-06T06:15:22.896Z,973
2018-11-06T06:16:27.076Z,973
2018-11-06T06:17:32.331Z,973.1
2018-11-06T06:18:33.543Z,973
2018-11-06T06:19:34.797Z,973
2018-11-06T06:20:36.421Z,973
2018-11-06T06:21:37.637Z,972.9
2018-11-06T06:22:41.947Z,973.1
2018-11-06T06:23:43.171Z,973.1
2018-11-06T06:24:44.495Z,973.1
2018-11-06T06:25:45.684Z,973.1
2018-11-06T06:26:49.037Z,973.1
2018-11-06T06:27:57.711Z,973
2018-11-06T06:28:58.910Z,973.1
2018-11-06T06:30:00.096Z,973.2
2018-11-06T06:31:03.752Z,973.1
2018-11-06T06:32:09.696Z,973.1
2018-11-06T06:33:11.092Z,973.2
2018-11-06T06:34:15.053Z,973.2
2018-11-06T06:35:16.361Z,973.2
2018-11-06T06:36:20.384Z,973.2
2018-11-06T06:37:21.606Z,973.2
2018-11-06T06:38:25.026Z,973.1
2018-11-06T06:39:26.263Z,973.2
2018-11-06T06:40:27.870Z,973.2
2018-11-06T06:41:29.071Z,973
2018-11-06T06:42:31.265Z,973
2018-11-06T06:43:32.523Z,973.3
2018-11-06T06:44:34.693Z,973.1
2018-11-06T06:45:35.921Z,973.3
2018-11-06T06:46:37.127Z,973.3
2018-11-06T06:47:41.319Z,973.3
2018-11-06T06:48:42.618Z,973.3
2018-11-06T06:49:43.983Z,973.2
2018-11-06T06:50:48.067Z,973.4
2018-11-06T06:51:49.250Z,973.3
2018-11-06T06:52:50.484Z,973.3
2018-11-06T06:53:53.166Z,973.4
2018-11-06T06:54:58.880Z,973.4
2018-11-06T06:56:05.671Z,973.4
2018-11-06T06:57:09.537Z,973.5
2018-11-06T06:58:10.846Z,973.5
2018-11-06T06:59:14.289Z,973.6
2018-11-06T07:00:20.809Z,973.4
2018-11-06T07:01:25.277Z,973.6
2018-11-06T07:02:26.489Z,973.6
2018-11-06T07:03:27.681Z,973.5
2018-11-06T07:04:28.936Z,973.7
2018-11-06T07:05:31.447Z,973.7
2018-11-06T07:06:32.900Z,973.6
2018-11-06T07:07:37.116Z,973.6
2018-11-06T07:08:38.329Z,973.7
2018-11-06T07:09:41.267Z,973.5
2018-11-06T07:10:53.398Z,973.5
2018-11-06T07:11:54.667Z,973.7
2018-11-06T07:12:55.905Z,973.6
2018-11-06T07:13:59.266Z,973.6
2018-11-06T07:15:00.540Z,973.7
2018-11-06T07:16:01.777Z,973.7
2018-11-06T07:17:03.017Z,973.7
2018-11-06T07:18:04.261Z,973.7
2018-11-06T07:19:08.598Z,973.7
2018-11-06T07:20:09.835Z,973.7
2018-11-06T07:21:11.096Z,973.8
2018-11-06T07:22:12.339Z,973.7
2018-11-06T07:23:16.808Z,973.7
2018-11-06T07:24:25.807Z,973.7
2018-11-06T07:25:30.084Z,973.7
2018-11-06T07:26:31.303Z,973.5
2018-11-06T07:27:33.623Z,973.6
2018-11-06T07:28:36.773Z,973.4
2018-11-06T07:29:37.981Z,973.6
2018-11-06T07:30:39.211Z,973.6
2018-11-06T07:31:40.421Z,973.6
2018-11-06T07:32:41.795Z,973.6
2018-11-06T07:33:44.273Z,973.6
2018-11-06T07:34:45.862Z,973.6
2018-11-06T07:35:47.200Z,973.6
2018-11-06T07:36:51.358Z,973.6
2018-11-06T07:37:52.780Z,973.5
2018-11-06T07:38:54.138Z,973.7
2018-11-06T07:39:55.553Z,973.7
2018-11-06T07:40:59.108Z,973.7
2018-11-06T07:42:01.284Z,973.7
2018-11-06T07:43:02.510Z,973.7
2018-11-06T07:44:03.864Z,973.7
2018-11-06T07:45:06.261Z,973.7
2018-11-06T07:46:07.603Z,973.5
2018-11-06T07:47:12.324Z,973.7
2018-11-06T07:48:13.550Z,973.7
2018-11-06T07:49:17.011Z,973.7
2018-11-06T07:50:19.396Z,973.5
2018-11-06T07:51:25.196Z,973.7
2018-11-06T07:52:29.653Z,973.8
2018-11-06T07:53:33.648Z,973.8
2018-11-06T07:54:34.918Z,973.8
2018-11-06T07:55:39.104Z,973.6
2018-11-06T07:56:40.337Z,973.8
2018-11-06T07:57:44.086Z,973.8
2018-11-06T07:58:56.258Z,973.8
2018-11-06T07:59:59.631Z,973.8
2018-11-06T08:01:04.558Z,973.8
2018-11-06T08:02:07.176Z,973.7
2018-11-06T08:03:12.763Z,973.8
2018-11-06T08:04:16.296Z,973.8
2018-11-06T08:05:17.695Z,973.8
2018-11-06T08:06:19.253Z,973.6
2018-11-06T08:07:26.261Z,973.9
2018-11-06T08:08:27.722Z,973.9
2018-11-06T08:09:29.210Z,973.9
2018-11-06T08:10:30.416Z,973.7
2018-11-06T08:11:31.950Z,973.9
2018-11-06T08:12:33.280Z,973.9
2018-11-06T08:13:47.337Z,973.9
2018-11-06T08:14:48.640Z,974
2018-11-06T08:15:59.659Z,974
2018-11-06T08:17:03.034Z,973.8
2018-11-06T08:18:10.743Z,974
2018-11-06T08:19:13.120Z,974
2018-11-06T08:20:23.693Z,973.8
2018-11-06T08:21:25.293Z,973.9
2018-11-06T08:22:28.834Z,973.9
2018-11-06T08:23:31.294Z,973.7
2018-11-06T08:24:33.514Z,973.9
2018-11-06T08:25:34.948Z,973.9
2018-11-06T08:26:36.381Z,973.8
2018-11-06T08:27:38.596Z,974
2018-11-06T08:28:58.646Z,974
2018-11-06T08:30:03.757Z,974
2018-11-06T08:31:05.217Z,974
2018-11-06T08:32:10.466Z,974
2018-11-06T08:33:12.252Z,973.9
2018-11-06T08:34:13.581Z,973.7
2018-11-06T08:35:14.972Z,973.9
2018-11-06T08:36:16.406Z,973.9
2018-11-06T08:37:19.482Z,973.8
2018-11-06T08:38:25.197Z,973.8
2018-11-06T08:39:26.543Z,973.8
2018-11-06T08:40:30.182Z,973.9
2018-11-06T08:41:35.096Z,973.8
2018-11-06T08:42:36.442Z,973.9
2018-11-06T08:43:44.516Z,973.7
2018-11-06T08:44:47.603Z,973.9
2018-11-06T08:45:48.849Z,973.9
2018-11-06T08:46:51.011Z,973.9
2018-11-06T08:47:53.573Z,973.9
2018-11-06T08:48:54.895Z,973.9
2018-11-06T08:49:56.240Z,973.9
2018-11-06T08:50:59.632Z,973.7
2018-11-06T08:52:00.842Z,973.9
2018-11-06T08:53:02.289Z,973.9
2018-11-06T08:54:03.547Z,973.9
2018-11-06T08:55:04.947Z,973.9
2018-11-06T08:56:09.079Z,973.7
2018-11-06T08:57:10.349Z,973.9
2018-11-06T08:58:17.858Z,973.8
2018-11-06T08:59:21.986Z,973.8
2018-11-06T09:00:23.314Z,973.8
2018-11-06T09:01:24.554Z,973.9
2018-11-06T09:02:27.301Z,973.9
2018-11-06T09:03:28.542Z,973.7
2018-11-06T09:04:30.923Z,973.9
2018-11-06T09:05:34.843Z,973.9
2018-11-06T09:06:40.795Z,973.9
2018-11-06T09:07:46.213Z,973.7
2018-11-06T09:08:47.448Z,973.8
2018-11-06T09:09:48.733Z,973.7
2018-11-06T09:10:49.987Z,973.9
2018-11-06T09:11:54.033Z,973.9
2018-11-06T09:13:00.596Z,973.8
2018-11-06T09:14:04.397Z,973.8
2018-11-06T09:15:05.676Z,973.8
2018-11-06T09:16:06.954Z,973.8
2018-11-06T09:17:09.379Z,973.8
2018-11-06T09:18:10.498Z,973.9
2018-11-06T09:19:11.748Z,973.9
2018-11-06T09:20:13.225Z,973.9
2018-11-06T09:21:15.762Z,973.9
2018-11-06T09:22:22.791Z,973.9
2018-11-06T09:23:24.049Z,973.9
2018-11-06T09:24:27.385Z,973.6
2018-11-06T09:25:30.485Z,973.8
2018-11-06T09:26:34.689Z,973.8
2018-11-06T09:27:40.083Z,973.4
2018-11-06T09:28:44.450Z,973.8
2018-11-06T09:29:45.758Z,973.4
2018-11-06T09:30:47.115Z,973.8
2018-11-06T09:31:55.132Z,973.7
2018-11-06T09:32:58.772Z,973.7
2018-11-06T09:34:07.298Z,973.7
2018-11-06T09:35:10.881Z,973.8
2018-11-06T09:36:25.713Z,973.7
2018-11-06T09:37:32.204Z,973.7
2018-11-06T09:38:38.593Z,973.5
2018-11-06T09:39:42.901Z,973.7
2018-11-06T09:40:44.118Z,973.6
2018-11-06T09:41:49.874Z,973.5
2018-11-06T09:42:57.497Z,973.6
2018-11-06T09:43:58.793Z,973.7
2018-11-06T09:45:03.141Z,973.7
2018-11-06T09:46:06.242Z,973.7
2018-11-06T09:47:11.400Z,973.4
2018-11-06T09:48:13.237Z,973.7
2018-11-06T09:49:17.837Z,973.7
2018-11-06T09:50:25.077Z,973.7
2018-11-06T09:51:28.837Z,973.7
2018-11-06T09:52:36.690Z,973.7
2018-11-06T09:53:50.656Z,973.7
2018-11-06T09:54:52.067Z,973.7
2018-11-06T09:55:57.636Z,973.8
2018-11-06T09:56:58.826Z,973.8
2018-11-06T09:58:03.753Z,973.8
2018-11-06T09:59:07.933Z,973.8
2018-11-06T10:00:15.493Z,973.7
2018-11-06T10:01:19.647Z,973.5
2018-11-06T10:02:23.300Z,973.7
2018-11-06T10:03:25.278Z,973.6
2018-11-06T10:04:28.655Z,973.5
2018-11-06T10:05:32.725Z,973.7
2018-11-06T10:06:51.288Z,973.6
2018-11-06T10:07:52.404Z,973.7
2018-11-06T10:09:00.773Z,973.6
2018-11-06T10:10:02.196Z,973.6
2018-11-06T10:11:03.448Z,973.6
2018-11-06T10:12:11.235Z,973.6
2018-11-06T10:13:12.823Z,973.6
2018-11-06T10:14:14.382Z,973.6
2018-11-06T10:15:15.726Z,973.6
2018-11-06T10:16:51.919Z,973.6
2018-11-06T10:17:56.448Z,973.6
2018-11-06T10:18:57.740Z,973.4
2018-11-06T10:20:01.125Z,973.5
2018-11-06T10:21:08.264Z,973.5
2018-11-06T10:22:21.431Z,973.5
2018-11-06T10:23:23.788Z,973.5
2018-11-06T10:24:28.443Z,973.5
2018-11-06T10:25:32.120Z,973.5
2018-11-06T10:26:47.649Z,973.5
2018-11-06T10:29:16.649Z,973.3
2018-11-06T10:30:19.970Z,973.5
2018-11-06T10:31:22.501Z,973.5
2018-11-06T10:32:23.845Z,973.5
2018-11-06T10:34:40.867Z,973.5
2018-11-06T10:35:42.302Z,973.6
2018-11-06T10:36:44.853Z,973.6
2018-11-06T10:37:49.021Z,973.6
2018-11-06T10:38:52.574Z,973.6
2018-11-06T10:39:58.952Z,973.4
2018-11-06T10:41:09.300Z,973.6
2018-11-06T10:42:10.568Z,973.6
2018-11-06T10:43:16.255Z,973.6
2018-11-06T10:44:23.087Z,973.6
2018-11-06T10:45:27.245Z,973.6
2018-11-06T10:46:32.731Z,973.5
2018-11-06T10:47:37.942Z,973.6
2018-11-06T10:48:42.340Z,973.6
2018-11-06T10:49:46.528Z,973.5
2018-11-06T10:50:47.790Z,973.5
2018-11-06T10:51:52.219Z,973.6
2018-11-06T10:52:59.407Z,973.6
2018-11-06T10:54:03.170Z,973.6
2018-11-06T10:55:06.717Z,973.6
2018-11-06T10:56:10.894Z,973.5
2018-11-06T10:57:18.762Z,973.4
2018-11-06T10:58:20.217Z,973.5
2018-11-06T10:59:21.502Z,973.5
2018-11-06T11:00:22.741Z,973.5
2018-11-06T11:01:26.115Z,973.5
2018-11-06T11:02:34.456Z,973.2
2018-11-06T11:03:40.136Z,973.4
2018-11-06T11:04:41.808Z,973.2
2018-11-06T11:05:47.256Z,973.4
2018-11-06T11:06:48.484Z,973.4
2018-11-06T11:07:53.912Z,973.4
2018-11-06T11:09:02.548Z,973.3
2018-11-06T11:10:09.411Z,973.2
2018-11-06T11:11:20.701Z,973.4
2018-11-06T11:12:24.784Z,973.2
2018-11-06T11:13:30.683Z,973.4
2018-11-06T11:14:35.032Z,973.4
2018-11-06T11:15:36.335Z,973.4
2018-11-06T11:16:43.209Z,973.4
2018-11-06T11:17:44.428Z,973.4
2018-11-06T11:18:50.698Z,973.4
2018-11-06T11:19:54.100Z,973.4
2018-11-06T11:20:55.490Z,973.3
2018-11-06T11:21:58.883Z,973.4
2018-11-06T11:23:00.332Z,973.1
2018-11-06T11:24:01.560Z,973.3
2018-11-06T11:25:05.061Z,973.3
2018-11-06T11:26:11.431Z,973.3
2018-11-06T11:27:13.842Z,973.2
2018-11-06T11:28:18.327Z,973.3
2018-11-06T11:29:20.913Z,973.3
2018-11-06T11:30:24.653Z,973.3
2018-11-06T11:31:27.715Z,973.3
2018-11-06T11:32:37.486Z,973.3
2018-11-06T11:33:38.808Z,973.3
2018-11-06T11:34:50.393Z,973.1
2018-11-06T11:35:51.646Z,973.3
2018-11-06T11:36:56.442Z,973
2018-11-06T11:37:58.967Z,973.1
2018-11-06T11:39:07.780Z,973.2
2018-11-06T11:41:27.668Z,973.3
2018-11-06T11:42:35.258Z,973.3
2018-11-06T11:43:39.365Z,973.1
2018-11-06T11:44:40.601Z,973.3
2018-11-06T11:45:41.819Z,973.1
2018-11-06T11:46:45.857Z,973.2
2018-11-06T11:47:47.316Z,973.3
2018-11-06T11:48:48.657Z,973.2
2018-11-06T11:49:52.115Z,973.2
2018-11-06T11:51:10.664Z,973.2
2018-11-06T11:52:16.297Z,973.2
2018-11-06T11:54:37.302Z,973.1
2018-11-06T11:55:39.685Z,973.1
2018-11-06T11:56:42.945Z,973.1
2018-11-06T11:57:46.562Z,973.1
2018-11-06T11:58:53.054Z,973.1
2018-11-06T12:00:05.381Z,973.2
2018-11-06T12:01:10.178Z,973.1
2018-11-06T12:02:17.641Z,973
2018-11-06T12:03:22.047Z,973
2018-11-06T12:04:23.636Z,973.1
2018-11-06T12:05:26.588Z,973
2018-11-06T12:06:35.969Z,973.1
2018-11-06T12:07:46.706Z,973
2018-11-06T12:08:56.887Z,973
2018-11-06T12:10:04.847Z,973
2018-11-06T12:11:08.638Z,973
2018-11-06T12:12:13.012Z,972.8
2018-11-06T12:13:16.212Z,972.9
2018-11-06T12:14:19.617Z,972.9
2018-11-06T12:15:22.327Z,972.9
2018-11-06T12:16:29.443Z,972.6
2018-11-06T12:17:39.684Z,972.8
2018-11-06T12:18:41.680Z,972.8
2018-11-06T12:19:44.700Z,972.8
2018-11-06T12:20:46.335Z,972.8
2018-11-06T12:21:50.325Z,972.8
2018-11-06T12:22:55.315Z,972.8
2018-11-06T12:23:57.904Z,972.7
2018-11-06T12:25:08.966Z,972.5
2018-11-06T12:26:16.602Z,972.7
2018-11-06T12:27:29.314Z,972.7
2018-11-06T12:28:37.845Z,972.7
2018-11-06T12:29:41.255Z,972.5
2018-11-06T12:30:50.358Z,972.7
2018-11-06T12:32:14.188Z,972.6
2018-11-06T12:33:16.439Z,972.5
2018-11-06T12:34:22.147Z,972.6
2018-11-06T12:35:31.318Z,972.6
2018-11-06T12:36:36.489Z,972.6
2018-11-06T12:37:37.813Z,972.4
2018-11-06T12:38:42.647Z,972.5
2018-11-06T12:39:43.982Z,972.3
2018-11-06T12:40:45.358Z,972.6
2018-11-06T12:41:50.531Z,972.6
2018-11-06T12:42:51.912Z,972.5
2018-11-06T12:43:56.192Z,972.5
2018-11-06T12:44:57.781Z,972.5
2018-11-06T12:45:59.064Z,972.5
2018-11-06T12:47:07.780Z,972.5
2018-11-06T12:48:11.554Z,972.5
2018-11-06T12:49:12.885Z,972.4
2018-11-06T12:50:21.358Z,972.4
2018-11-06T12:51:22.552Z,972.4
2018-11-06T12:52:26.240Z,972.4
2018-11-06T12:53:29.540Z,972.5
2018-11-06T12:54:40.860Z,972.3
2018-11-06T12:55:53.739Z,972.3
2018-11-06T12:56:57.802Z,972.2
2018-11-06T12:58:01.865Z,972.4
2018-11-06T12:59:11.312Z,972.3
2018-11-06T13:00:19.173Z,972.3
2018-11-06T13:01:22.802Z,972.3
2018-11-06T13:02:26.297Z,972.3
2018-11-06T13:03:42.867Z,972.3
2018-11-06T13:04:45.863Z,972.2
2018-11-06T13:05:49.490Z,972.3
2018-11-06T13:06:50.968Z,972.4
2018-11-06T13:08:01.148Z,972.3
2018-11-06T13:09:07.324Z,972.3
2018-11-06T13:10:10.831Z,972.4
2018-11-06T13:11:21.185Z,972.3
2018-11-06T13:12:25.180Z,972.3
2018-11-06T13:13:26.510Z,972.2
2018-11-06T13:14:27.839Z,972.3
2018-11-06T13:15:47.209Z,972.2
2018-11-06T13:16:49.500Z,972.3
2018-11-06T13:18:05.570Z,972.3
2018-11-06T13:19:06.846Z,972.3
2018-11-06T13:20:08.120Z,972.1
2018-11-06T13:21:13.240Z,972.3
2018-11-06T13:22:17.516Z,972.2
2018-11-06T13:23:21.284Z,972.3
2018-11-06T13:24:23.982Z,972.3
2018-11-06T13:25:29.583Z,972.3
2018-11-06T13:26:33.240Z,972.3
2018-11-06T13:27:35.065Z,972.3
2018-11-06T13:28:36.387Z,972.3
2018-11-06T13:29:39.588Z,972.3
2018-11-06T13:30:41.931Z,972.3
2018-11-06T13:31:43.253Z,972.1
2018-11-06T13:32:46.718Z,972.2
2018-11-06T13:33:51.936Z,972.2
2018-11-06T13:34:53.292Z,972.2
2018-11-06T13:36:03.786Z,972.2
2018-11-06T13:37:05.440Z,972.2
2018-11-06T13:38:10.484Z,972.2
2018-11-06T13:39:17.753Z,972
2018-11-06T13:40:25.799Z,972.2
2018-11-06T13:41:27.465Z,972.2
2018-11-06T13:42:34.982Z,972.2
2018-11-06T13:43:39.307Z,972.2
2018-11-06T13:44:40.710Z,972.1
2018-11-06T13:45:46.490Z,972.1
2018-11-06T13:47:02.374Z,972.1